createdAt,value
2018-04-10T00:01:33.653Z,75.00
2018-04-10T00:04:01.962Z,75.10
2018-04-10T00:06:30.228Z,74.90
2018-04-10T00:08:58.518Z,75.10
2018-04-10T00:11:26.798Z,76.00
2018-04-10T00:13:55.162Z,76.10
2018-04-10T00:16:23.432Z,76.30
2018-04-10T00:18:51.701Z,76.30
2018-04-10T00:21:19.983Z,76.50
2018-04-10T00:23:48.261Z,76.60
2018-04-10T00:26:16.527Z,76.60
2018-04-10T00:28:44.805Z,76.60
2018-04-10T00:31:13.090Z,77.00
2018-04-10T00:33:41.347Z,77.30
2018-04-10T00:36:09.639Z,77.50
2018-04-10T00:38:37.917Z,77.50
2018-04-10T00:41:06.178Z,77.40
2018-04-10T00:43:34.474Z,77.50
2018-04-10T00:46:02.746Z,77.60
2018-04-10T00:48:31.123Z,77.60
2018-04-10T00:50:59.374Z,77.70
2018-04-10T00:53:36.493Z,77.90
2018-04-10T00:56:04.751Z,77.80
2018-04-10T00:58:33.037Z,78.30
2018-04-10T01:01:01.290Z,77.90
2018-04-10T01:03:29.546Z,78.30
2018-04-10T01:05:57.807Z,78.30
2018-04-10T01:08:26.847Z,78.90
2018-04-10T01:10:55.136Z,78.80
2018-04-10T01:13:23.508Z,78.70
2018-04-10T01:15:51.780Z,78.80
2018-04-10T01:18:20.044Z,79.10
2018-04-10T01:20:48.344Z,79.20
2018-04-10T01:23:17.528Z,79.20
2018-04-10T01:25:45.813Z,79.20
2018-04-10T01:28:14.076Z,79.30
2018-04-10T01:30:42.332Z,79.30
2018-04-10T01:33:10.636Z,79.40
2018-04-10T01:35:38.912Z,79.00
2018-04-10T01:38:07.283Z,79.10
2018-04-10T01:40:35.540Z,78.90
2018-04-10T01:43:03.812Z,79.00
2018-04-10T01:45:32.067Z,79.00
2018-04-10T01:48:01.099Z,79.10
2018-04-10T01:50:29.363Z,79.20
2018-04-10T01:52:57.641Z,79.20
2018-04-10T01:55:25.902Z,79.30
2018-04-10T01:57:54.164Z,79.40
2018-04-10T02:00:23.184Z,79.10
2018-04-10T02:02:51.492Z,79.20
2018-04-10T02:05:19.853Z,79.20
2018-04-10T02:07:48.133Z,79.20
2018-04-10T02:10:16.404Z,79.10
2018-04-10T02:12:44.688Z,79.00
2018-04-10T02:15:12.943Z,79.20
2018-04-10T02:17:41.236Z,79.50
2018-04-10T02:20:09.502Z,79.60
2018-04-10T02:22:37.765Z,79.80
2018-04-10T02:25:06.035Z,80.10
2018-04-10T02:27:34.343Z,80.40
2018-04-10T02:30:02.608Z,80.70
2018-04-10T02:32:30.873Z,80.90
2018-04-10T02:34:59.168Z,80.90
2018-04-10T02:37:27.425Z,81.10
2018-04-10T02:39:55.681Z,81.40
2018-04-10T02:42:23.988Z,81.60
2018-04-10T02:44:52.260Z,81.70
2018-04-10T02:47:20.497Z,81.80
2018-04-10T02:49:48.764Z,82.20
2018-04-10T02:52:17.808Z,82.70
2018-04-10T02:54:46.109Z,82.60
2018-04-10T02:57:14.467Z,82.20
2018-04-10T02:59:42.755Z,82.50
2018-04-10T03:02:11.024Z,82.20
2018-04-10T03:04:39.288Z,83.30
2018-04-10T03:07:07.547Z,82.50
2018-04-10T03:09:35.885Z,82.50
2018-04-10T03:12:04.219Z,82.80
2018-04-10T03:14:32.520Z,82.40
2018-04-10T03:17:00.784Z,82.80
2018-04-10T03:19:29.052Z,83.30
2018-04-10T03:21:57.308Z,83.30
2018-04-10T03:24:25.552Z,83.50
2018-04-10T03:26:54.581Z,83.30
2018-04-10T03:29:22.844Z,83.30
2018-04-10T03:31:51.096Z,83.40
2018-04-10T03:34:20.112Z,83.30
2018-04-10T03:36:48.417Z,83.30
2018-04-10T03:39:16.692Z,83.30
2018-04-10T03:41:44.969Z,83.70
2018-04-10T03:44:13.333Z,83.50
2018-04-10T03:46:41.592Z,83.80
2018-04-10T03:49:09.867Z,83.30
2018-04-10T03:51:38.120Z,83.80
2018-04-10T03:54:07.137Z,84.20
2018-04-10T03:56:35.416Z,84.20
2018-04-10T03:59:03.666Z,84.20
2018-04-10T04:01:32.704Z,84.40
2018-04-10T04:04:00.961Z,84.40
2018-04-10T04:06:29.220Z,84.60
2018-04-10T04:08:57.474Z,84.70
2018-04-10T04:11:26.508Z,84.60
2018-04-10T04:13:54.772Z,84.50
2018-04-10T04:16:34.949Z,84.90
2018-04-10T04:19:15.319Z,85.00
2018-04-10T04:21:54.446Z,85.20
2018-04-10T04:24:22.717Z,85.20
2018-04-10T04:26:50.979Z,85.40
2018-04-10T04:29:19.268Z,85.30
2018-04-10T04:31:47.543Z,85.30
2018-04-10T04:34:15.808Z,85.50
2018-04-10T04:36:44.092Z,85.50
2018-04-10T04:39:12.360Z,85.40
2018-04-10T04:41:40.609Z,85.30
2018-04-10T04:44:08.922Z,85.20
2018-04-10T04:46:37.167Z,85.10
2018-04-10T04:49:05.485Z,84.80
2018-04-10T04:51:33.748Z,84.60
2018-04-10T04:54:02.012Z,84.30
2018-04-10T04:56:36.288Z,83.90
2018-04-10T04:59:04.532Z,83.70
2018-04-10T05:01:32.892Z,83.40
2018-04-10T05:04:13.218Z,82.80
2018-04-10T05:06:42.220Z,81.70
2018-04-10T05:09:10.488Z,81.80
2018-04-10T05:11:38.748Z,81.10
2018-04-10T05:14:07.789Z,80.00
2018-04-10T05:16:36.049Z,80.00
2018-04-10T05:19:04.317Z,79.30
2018-04-10T05:21:32.589Z,78.20
2018-04-10T05:24:00.856Z,77.00
2018-04-10T05:26:29.124Z,75.90
2018-04-10T05:28:57.539Z,74.70
2018-04-10T05:31:25.854Z,73.40
2018-04-10T05:33:54.101Z,72.00
2018-04-10T05:36:22.368Z,71.00
2018-04-10T05:38:50.647Z,69.70
2018-04-10T05:41:18.955Z,67.80
2018-04-10T05:43:47.203Z,65.50
2018-04-10T05:46:15.480Z,63.20
2018-04-10T05:48:43.756Z,60.70
2018-04-10T05:51:12.017Z,58.50
2018-04-10T05:53:40.271Z,56.70
2018-04-10T05:56:08.532Z,55.60
2018-04-10T05:58:36.853Z,53.60
2018-04-10T06:01:05.108Z,52.90
2018-04-10T06:03:33.360Z,51.50
2018-04-10T06:06:01.674Z,49.90
2018-04-10T06:08:29.934Z,49.00
2018-04-10T06:10:58.188Z,49.20
2018-04-10T06:13:26.509Z,48.90
2018-04-10T06:15:54.778Z,49.30
2018-04-10T06:18:23.034Z,51.70
2018-04-10T06:20:51.294Z,53.60
2018-04-10T06:23:19.609Z,54.60
2018-04-10T06:25:47.868Z,55.00
2018-04-10T06:28:16.124Z,54.90
2018-04-10T06:30:44.387Z,54.00
2018-04-10T06:33:13.406Z,54.30
2018-04-10T06:35:41.676Z,54.20
2018-04-10T06:38:09.928Z,54.30
2018-04-10T06:40:38.965Z,53.30
2018-04-10T06:43:07.276Z,53.30
2018-04-10T06:45:35.509Z,51.90
2018-04-10T06:48:03.792Z,51.00
2018-04-10T06:50:32.052Z,49.60
2018-04-10T06:53:00.346Z,48.20
2018-04-10T06:55:28.625Z,46.60
2018-04-10T06:57:56.893Z,45.50
2018-04-10T07:00:25.180Z,44.30
2018-04-10T07:02:53.437Z,43.70
2018-04-10T07:05:21.695Z,42.50
2018-04-10T07:07:49.992Z,41.00
2018-04-10T07:10:18.276Z,40.20
2018-04-10T07:12:46.533Z,39.30
2018-04-10T07:15:14.798Z,38.60
2018-04-10T07:17:43.092Z,38.90
2018-04-10T07:20:11.481Z,37.90
2018-04-10T07:22:39.733Z,38.60
2018-04-10T07:25:07.989Z,37.90
2018-04-10T07:27:36.251Z,37.60
2018-04-10T07:30:05.297Z,40.30
2018-04-10T07:32:33.572Z,40.30
2018-04-10T07:35:01.845Z,40.70
2018-04-10T07:37:30.128Z,41.10
2018-04-10T07:39:58.444Z,42.30
2018-04-10T07:42:27.469Z,41.00
2018-04-10T07:44:56.130Z,40.90
2018-04-10T07:47:24.385Z,40.50
2018-04-10T07:49:52.632Z,39.60
2018-04-10T07:52:20.891Z,38.50
2018-04-10T07:54:49.183Z,38.50
2018-04-10T07:57:17.447Z,38.80
2018-04-10T07:59:45.739Z,37.90
2018-04-10T08:02:13.996Z,38.70
2018-04-10T08:04:42.280Z,38.70
2018-04-10T08:07:10.512Z,39.90
2018-04-10T08:09:39.550Z,40.00
2018-04-10T08:12:11.039Z,39.90
2018-04-10T08:14:39.268Z,40.10
2018-04-10T08:17:07.524Z,40.60
2018-04-10T08:19:35.785Z,40.60
2018-04-10T08:22:04.821Z,39.30
2018-04-10T08:24:33.076Z,39.30
2018-04-10T08:27:01.404Z,38.90
2018-04-10T08:29:29.744Z,39.60
2018-04-10T08:31:58.029Z,40.90
2018-04-10T08:34:26.271Z,39.10
2018-04-10T08:36:54.540Z,38.40
2018-04-10T08:39:22.853Z,39.10
2018-04-10T08:41:51.111Z,39.80
2018-04-10T08:44:19.373Z,40.20
2018-04-10T08:46:47.672Z,41.10
2018-04-10T08:49:15.951Z,41.60
2018-04-10T08:51:44.226Z,42.20
2018-04-10T08:54:12.473Z,43.50
2018-04-10T08:56:40.776Z,43.80
2018-04-10T08:59:09.039Z,43.70
2018-04-10T09:01:37.302Z,41.70
2018-04-10T09:04:05.639Z,41.20
2018-04-10T09:06:33.873Z,41.70
2018-04-10T09:09:02.156Z,40.50
2018-04-10T09:11:30.421Z,39.70
2018-04-10T09:13:58.681Z,38.20
2018-04-10T09:16:26.972Z,38.80
2018-04-10T09:18:55.252Z,41.10
2018-04-10T09:21:23.505Z,41.40
2018-04-10T09:23:51.805Z,40.40
2018-04-10T09:26:20.084Z,39.80
2018-04-10T09:28:48.356Z,40.20
2018-04-10T09:31:16.644Z,39.80
2018-04-10T09:33:44.917Z,40.80
2018-04-10T09:36:13.187Z,42.50
2018-04-10T09:38:41.455Z,44.00
2018-04-10T09:41:09.737Z,45.00
2018-04-10T09:43:38.168Z,46.50
2018-04-10T09:46:06.398Z,45.00
2018-04-10T09:48:34.683Z,44.50
2018-04-10T09:51:02.948Z,44.20
2018-04-10T09:53:31.203Z,42.30
2018-04-10T09:55:59.593Z,44.80
2018-04-10T09:58:27.876Z,44.20
2018-04-10T10:00:56.139Z,44.10
2018-04-10T10:03:24.428Z,46.00
2018-04-10T10:05:52.684Z,46.70
2018-04-10T10:08:20.984Z,47.10
2018-04-10T10:10:49.256Z,47.20
2018-04-10T10:13:17.529Z,46.50
2018-04-10T10:15:45.781Z,44.10
2018-04-10T10:18:14.092Z,46.10
2018-04-10T10:20:42.345Z,44.80
2018-04-10T10:23:10.633Z,44.60
2018-04-10T10:25:38.884Z,47.40
2018-04-10T10:28:07.168Z,49.80
2018-04-10T10:30:35.460Z,50.70
2018-04-10T10:33:24.096Z,50.10
2018-04-10T10:35:52.429Z,49.10
2018-04-10T10:38:20.770Z,49.00
2018-04-10T10:40:49.067Z,50.00
2018-04-10T10:43:17.325Z,50.80
2018-04-10T10:45:45.612Z,51.30
2018-04-10T10:48:13.996Z,51.20
2018-04-10T10:50:42.277Z,53.20
2018-04-10T10:53:10.532Z,55.80
2018-04-10T10:55:38.788Z,56.20
2018-04-10T10:58:07.137Z,56.60
2018-04-10T11:00:35.369Z,57.20
2018-04-10T11:03:03.625Z,56.40
2018-04-10T11:05:31.880Z,57.10
2018-04-10T11:08:00.905Z,56.70
2018-04-10T11:10:29.177Z,56.70
2018-04-10T11:12:57.464Z,57.20
2018-04-10T11:15:25.724Z,57.30
2018-04-10T11:17:53.976Z,58.30
2018-04-10T11:20:23.032Z,57.70
2018-04-10T11:22:51.389Z,57.60
2018-04-10T11:25:19.695Z,57.90
2018-04-10T11:27:47.936Z,57.20
2018-04-10T11:30:16.196Z,59.40
2018-04-10T11:32:44.449Z,58.80
2018-04-10T11:35:12.764Z,59.00
2018-04-10T11:37:41.015Z,58.70
2018-04-10T11:40:09.281Z,58.50
2018-04-10T11:42:37.601Z,58.90
2018-04-10T11:45:05.860Z,59.70
2018-04-10T11:47:34.111Z,58.60
2018-04-10T11:50:02.382Z,58.80
2018-04-10T11:52:30.656Z,60.00
2018-04-10T11:54:58.963Z,58.40
2018-04-10T11:57:27.256Z,59.10
2018-04-10T11:59:55.738Z,59.20
2018-04-10T12:02:23.995Z,59.10
2018-04-10T12:04:52.261Z,59.50
2018-04-10T12:07:20.517Z,59.40
2018-04-10T12:09:48.777Z,59.20
2018-04-10T12:12:17.821Z,58.80
2018-04-10T12:14:46.196Z,58.80
2018-04-10T12:17:14.470Z,58.40
2018-04-10T12:19:42.728Z,57.80
2018-04-10T12:22:11.033Z,58.60
2018-04-10T12:24:39.296Z,57.80
2018-04-10T12:27:07.577Z,58.40
2018-04-10T12:29:35.848Z,58.50
2018-04-10T12:32:04.109Z,59.80
2018-04-10T12:34:32.599Z,58.70
2018-04-10T12:37:00.890Z,58.20
2018-04-10T12:39:29.122Z,58.90
2018-04-10T12:41:57.432Z,59.10
2018-04-10T12:44:25.723Z,57.70
2018-04-10T12:46:53.979Z,58.30
2018-04-10T12:49:22.232Z,57.50
2018-04-10T12:51:50.508Z,58.20
2018-04-10T12:54:18.769Z,57.80
2018-04-10T12:56:48.000Z,57.90
2018-04-10T12:59:16.292Z,57.70
2018-04-10T13:01:44.588Z,57.20
2018-04-10T13:04:12.835Z,57.70
2018-04-10T13:06:41.091Z,56.90
2018-04-10T13:09:09.380Z,57.40
2018-04-10T13:11:37.652Z,56.50
2018-04-10T13:14:05.909Z,57.20
2018-04-10T13:16:34.173Z,56.90
2018-04-10T13:19:02.531Z,56.80
2018-04-10T13:21:32.326Z,56.60
2018-04-10T13:24:00.565Z,56.60
2018-04-10T13:26:28.832Z,57.20
2018-04-10T13:28:57.148Z,57.80
2018-04-10T13:31:26.197Z,58.20
2018-04-10T13:33:54.456Z,58.20
2018-04-10T13:36:22.759Z,57.90
2018-04-10T13:38:51.108Z,57.40
2018-04-10T13:41:19.368Z,57.30
2018-04-10T13:43:48.384Z,57.80
2018-04-10T13:46:16.649Z,57.70
2018-04-10T13:48:44.908Z,57.20
2018-04-10T13:51:13.947Z,57.80
2018-04-10T13:53:42.208Z,57.80
2018-04-10T13:56:10.504Z,56.60
2018-04-10T13:58:38.781Z,55.30
2018-04-10T14:01:07.061Z,55.40
2018-04-10T14:03:35.344Z,56.00
2018-04-10T14:06:03.742Z,55.00
2018-04-10T14:08:31.985Z,55.70
2018-04-10T14:11:00.236Z,54.40
2018-04-10T14:13:28.504Z,54.10
2018-04-10T14:15:56.758Z,54.50
2018-04-10T14:18:25.791Z,54.80
2018-04-10T14:20:54.077Z,54.80
2018-04-10T14:23:22.357Z,53.50
2018-04-10T14:25:50.628Z,52.70
2018-04-10T14:28:18.904Z,54.40
2018-04-10T14:30:47.164Z,52.20
2018-04-10T14:33:15.424Z,52.30
2018-04-10T14:35:43.679Z,51.90
2018-04-10T14:38:12.696Z,52.20
2018-04-10T14:40:40.957Z,52.20
2018-04-10T14:43:09.995Z,51.50
2018-04-10T14:45:38.269Z,51.50
2018-04-10T14:48:06.532Z,51.40
2018-04-10T14:50:34.795Z,51.80
2018-04-10T14:53:03.049Z,51.60
2018-04-10T14:55:32.072Z,51.40
2018-04-10T14:58:00.336Z,52.00
2018-04-10T15:00:28.593Z,51.40
2018-04-10T15:02:57.632Z,50.30
2018-04-10T15:05:25.882Z,50.30
2018-04-10T15:07:54.176Z,50.40
2018-04-10T15:10:22.491Z,50.80
2018-04-10T15:12:50.736Z,50.90
2018-04-10T15:15:19.004Z,50.00
2018-04-10T15:17:47.282Z,50.70
2018-04-10T15:20:15.557Z,49.60
2018-04-10T15:22:43.812Z,49.80
2018-04-10T15:25:12.065Z,50.00
2018-04-10T15:27:41.092Z,50.40
2018-04-10T15:30:09.349Z,50.40
2018-04-10T15:32:37.612Z,50.00
2018-04-10T15:35:06.648Z,49.40
2018-04-10T15:37:34.921Z,49.40
2018-04-10T15:40:03.204Z,50.10
2018-04-10T15:42:31.852Z,50.70
2018-04-10T15:45:00.859Z,50.00
2018-04-10T15:47:29.176Z,50.00
2018-04-10T15:49:57.428Z,49.60
2018-04-10T15:52:25.686Z,49.60
2018-04-10T15:54:53.972Z,49.60
2018-04-10T15:57:22.257Z,49.90
2018-04-10T15:59:50.526Z,50.50
2018-04-10T16:02:18.795Z,51.10
2018-04-10T16:04:47.084Z,51.10
2018-04-10T16:07:15.336Z,50.30
2018-04-10T16:09:43.633Z,50.30
2018-04-10T16:12:11.909Z,49.80
2018-04-10T16:14:40.179Z,49.80
2018-04-10T16:17:08.460Z,47.80
2018-04-10T16:19:36.738Z,47.20
2018-04-10T16:22:04.988Z,46.90
2018-04-10T16:24:33.240Z,47.10
2018-04-10T16:27:02.272Z,47.70
2018-04-10T16:29:30.575Z,47.70
2018-04-10T16:31:58.816Z,47.50
2018-04-10T16:34:27.139Z,48.00
2018-04-10T16:36:55.352Z,47.60
2018-04-10T16:39:23.607Z,47.80
2018-04-10T16:41:52.612Z,48.30
2018-04-10T16:44:20.920Z,48.30
2018-04-10T16:46:49.191Z,47.90
2018-04-10T16:49:17.448Z,47.80
2018-04-10T16:51:45.777Z,48.70
2018-04-10T16:54:14.123Z,48.90
2018-04-10T16:56:42.402Z,49.40
2018-04-10T16:59:10.654Z,49.60
2018-04-10T17:01:38.947Z,49.60
2018-04-10T17:04:07.206Z,49.70
2018-04-10T17:06:35.500Z,50.10
2018-04-10T17:09:03.760Z,50.00
2018-04-10T17:11:32.056Z,50.10
2018-04-10T17:14:00.333Z,50.30
2018-04-10T17:16:28.604Z,49.90
2018-04-10T17:18:56.876Z,50.00
2018-04-10T17:21:25.135Z,49.60
2018-04-10T17:23:53.372Z,49.60
2018-04-10T17:26:21.628Z,50.50
2018-04-10T17:28:49.872Z,50.00
2018-04-10T17:31:18.123Z,50.10
2018-04-10T17:33:47.132Z,49.20
2018-04-10T17:36:15.384Z,49.20
2018-04-10T17:38:44.405Z,49.60
2018-04-10T17:41:13.404Z,49.90
2018-04-10T17:43:41.648Z,49.80
2018-04-10T17:46:10.680Z,50.00
2018-04-10T17:48:38.919Z,50.00
2018-04-10T17:51:07.936Z,50.10
2018-04-10T17:53:36.379Z,50.10
2018-04-10T17:56:04.677Z,49.60
2018-04-10T17:58:32.868Z,50.30
2018-04-10T18:01:01.116Z,50.00
2018-04-10T18:03:30.128Z,50.00
2018-04-10T18:05:58.372Z,49.90
2018-04-10T18:08:26.618Z,49.50
2018-04-10T18:10:54.869Z,50.00
2018-04-10T18:13:23.116Z,49.20
2018-04-10T18:15:52.128Z,50.20
2018-04-10T18:18:20.372Z,50.20
2018-04-10T18:20:49.408Z,51.20
2018-04-10T18:23:17.648Z,51.20
2018-04-10T18:25:46.663Z,51.10
2018-04-10T18:28:14.908Z,51.10
2018-04-10T18:30:43.942Z,52.60
2018-04-10T18:33:12.189Z,52.60
2018-04-10T18:35:41.228Z,54.70
2018-04-10T18:38:09.474Z,54.70
2018-04-10T18:40:37.733Z,55.20
2018-04-10T18:43:06.778Z,55.70
2018-04-10T18:45:35.028Z,55.60
2018-04-10T18:48:03.278Z,55.30
2018-04-10T18:50:32.306Z,55.10
2018-04-10T18:53:00.561Z,55.10
2018-04-10T18:55:28.831Z,54.80
2018-04-10T18:57:57.086Z,55.00
2018-04-10T19:00:26.117Z,55.20
2018-04-10T19:02:54.377Z,55.20
2018-04-10T19:05:22.636Z,55.80
2018-04-10T19:07:51.658Z,56.00
2018-04-10T19:10:19.932Z,56.00
2018-04-10T19:12:48.185Z,55.50
2018-04-10T19:15:17.208Z,54.80
2018-04-10T19:17:46.214Z,54.80
2018-04-10T19:20:14.452Z,55.10
2018-04-10T19:22:42.705Z,54.50
2018-04-10T19:25:10.956Z,54.20
2018-04-10T19:27:39.196Z,53.60
2018-04-10T19:30:07.481Z,54.10
2018-04-10T19:32:36.829Z,53.30
2018-04-10T19:35:05.060Z,53.30
2018-04-10T19:37:33.308Z,53.30
2018-04-10T19:40:01.557Z,53.30
2018-04-10T19:42:29.799Z,53.40
2018-04-10T19:44:58.075Z,53.40
2018-04-10T19:47:26.319Z,54.00
2018-04-10T19:49:54.565Z,54.00
2018-04-10T19:52:23.580Z,53.80
2018-04-10T19:54:51.835Z,53.70
2018-04-10T19:57:20.848Z,54.30
2018-04-10T19:59:49.099Z,54.20
2018-04-10T20:02:18.116Z,54.60
2018-04-10T20:04:46.415Z,54.60
2018-04-10T20:07:15.390Z,55.20
2018-04-10T20:09:43.631Z,55.10
2018-04-10T20:12:12.654Z,55.60
2018-04-10T20:14:40.900Z,55.60
2018-04-10T20:17:09.148Z,56.00
2018-04-10T20:19:37.396Z,56.30
2018-04-10T20:22:05.656Z,57.30
2018-04-10T20:24:33.902Z,58.10
2018-04-10T20:27:02.916Z,58.50
2018-04-10T20:29:31.168Z,58.50
2018-04-10T20:32:00.183Z,58.70
2018-04-10T20:34:28.438Z,58.70
2018-04-10T20:36:57.448Z,58.90
2018-04-10T20:39:25.708Z,58.90
2018-04-10T20:41:54.720Z,59.70
2018-04-10T20:44:22.974Z,59.70
2018-04-10T20:46:51.993Z,60.10
2018-04-10T20:49:20.252Z,60.10
2018-04-10T20:51:49.260Z,62.30
2018-04-10T20:54:17.521Z,62.30
2018-04-10T20:56:45.772Z,63.40
2018-04-10T20:59:14.788Z,64.10
2018-04-10T21:01:43.037Z,64.00
2018-04-10T21:04:11.302Z,63.50
2018-04-10T21:06:39.545Z,63.90
2018-04-10T21:09:07.792Z,64.00
2018-04-10T21:11:36.045Z,64.80
2018-04-10T21:14:05.056Z,65.20
2018-04-10T21:16:33.305Z,65.10
2018-04-10T21:19:01.579Z,65.90
2018-04-10T21:21:30.080Z,65.70
2018-04-10T21:23:59.101Z,66.70
2018-04-10T21:26:27.348Z,66.60
2018-04-10T21:28:56.376Z,68.10
2018-04-10T21:31:24.645Z,68.00
2018-04-10T21:33:52.888Z,68.50
2018-04-10T21:36:21.913Z,69.70
2018-04-10T21:38:50.185Z,69.60
2018-04-10T21:41:18.441Z,71.90
2018-04-10T21:43:46.747Z,71.50
2018-04-10T21:46:15.753Z,74.60
2018-04-10T21:48:44.007Z,74.50
2018-04-10T21:51:12.260Z,75.00
2018-04-10T21:53:40.525Z,75.70
2018-04-10T21:56:09.580Z,76.20
2018-04-10T21:58:37.836Z,76.10
2018-04-10T22:01:06.096Z,77.00
2018-04-10T22:03:34.364Z,78.00
2018-04-10T22:06:02.624Z,78.50
2018-04-10T22:08:31.648Z,79.20
2018-04-10T22:10:59.904Z,79.20
2018-04-10T22:13:28.168Z,79.80
2018-04-10T22:15:56.433Z,80.20
2018-04-10T22:18:25.460Z,80.70
2018-04-10T22:20:53.712Z,80.70
2018-04-10T22:23:22.740Z,81.30
2018-04-10T22:25:51.004Z,81.30
2018-04-10T22:28:19.272Z,81.90
2018-04-10T22:30:47.536Z,81.80
2018-04-10T22:33:15.759Z,82.00
2018-04-10T22:35:44.781Z,82.30
2018-04-10T22:38:13.042Z,82.30
2018-04-10T22:40:42.072Z,83.60
2018-04-10T22:43:10.333Z,83.60
2018-04-10T22:45:38.600Z,83.00
2018-04-10T22:48:06.848Z,83.00
2018-04-10T22:50:35.118Z,83.40
2018-04-10T22:53:03.371Z,83.20
2018-04-10T22:55:31.638Z,83.60
2018-04-10T22:57:59.894Z,83.60
2018-04-10T23:03:26.688Z,84.20
2018-04-10T23:05:54.949Z,84.20
2018-04-10T23:08:23.206Z,84.50
2018-04-10T23:10:51.479Z,84.80
2018-04-10T23:13:19.736Z,85.30
2018-04-10T23:15:48.776Z,86.30
2018-04-10T23:18:17.076Z,86.30
2018-04-10T23:20:45.349Z,86.60
2018-04-10T23:23:13.620Z,86.80
2018-04-10T23:25:41.902Z,87.00
2018-04-10T23:28:10.164Z,87.30
2018-04-10T23:30:38.470Z,87.40
2018-04-10T23:33:06.833Z,87.40
2018-04-10T23:35:35.105Z,87.50
2018-04-10T23:38:03.384Z,87.90
2018-04-10T23:40:31.675Z,88.30
2018-04-10T23:42:59.937Z,88.50
2018-04-10T23:45:28.214Z,88.60
2018-04-10T23:47:56.481Z,88.40
2018-04-10T23:50:24.777Z,88.30
2018-04-10T23:52:53.037Z,88.40
2018-04-10T23:55:21.341Z,89.00
2018-04-10T23:57:49.568Z,89.40
